Time;durP1;ratioP1;P1;durP2;ratioP2;P2;SDS_P1;SDS_P2;PMS_P1;PMS_P2;Temp;Humidity;BMP_temperature;BMP_pressure;BME280_temperature;BME280_humidity;BME280_pressure;Samples;Min_cycle;Max_cycle;Signal;HPM_P1;HPM_P2
2023/09/16 00:00:08;;;;;;;5.50;3.47;;;;;;;14.59;100.00;100603.78;694851;28;1235;-63
2023/09/16 00:00:33;;;;;;;5.65;3.58;;;;;;;14.60;100.00;100597.59;695666;28;825;-62
2023/09/16 00:00:53;;;;;;;5.68;3.65;;;;;;;14.59;100.00;100602.91;694573;28;1018;-63
2023/09/16 00:01:14;;;;;;;5.72;3.63;;;;;;;14.59;100.00;100606.41;695200;28;4659;-63
2023/09/16 00:01:35;;;;;;;6.00;3.60;;;;;;;14.58;100.00;100598.53;695892;28;1010;-62
2023/09/16 00:01:56;;;;;;;5.93;3.65;;;;;;;14.57;100.00;100602.94;694955;28;1051;-62
2023/09/16 00:02:16;;;;;;;6.30;3.47;;;;;;;14.59;100.00;100601.16;695489;28;883;-63
2023/09/16 00:02:39;;;;;;;5.82;3.50;;;;;;;14.60;100.00;100602.00;693246;28;883;-62
2023/09/16 00:03:00;;;;;;;5.28;3.42;;;;;;;14.59;100.00;100595.00;692177;28;1012;-62
2023/09/16 00:03:21;;;;;;;5.25;3.40;;;;;;;14.56;100.00;100595.94;693506;28;1353;-62
2023/09/16 00:03:41;;;;;;;5.53;3.50;;;;;;;14.56;100.00;100600.34;695401;28;900;-62
2023/09/16 00:04:02;;;;;;;5.97;3.50;;;;;;;14.54;100.00;100592.50;694409;28;1095;-62
2023/09/16 00:04:23;;;;;;;5.67;3.67;;;;;;;14.55;100.00;100595.97;694990;28;4351;-62
2023/09/16 00:04:44;;;;;;;5.13;3.65;;;;;;;14.54;100.00;100595.13;695955;28;1119;-62
2023/09/16 00:05:05;;;;;;;6.27;3.57;;;;;;;14.54;100.00;100596.88;694735;28;1273;-62
2023/09/16 00:05:26;;;;;;;5.93;3.40;;;;;;;14.55;100.00;100596.84;695875;28;905;-62
2023/09/16 00:05:47;;;;;;;5.65;3.30;;;;;;;14.57;100.00;100596.81;696164;28;1914;-62
2023/09/16 00:06:07;;;;;;;4.87;3.30;;;;;;;14.59;100.00;100600.25;695378;28;930;-63
2023/09/16 00:06:27;;;;;;;4.97;3.20;;;;;;;14.59;100.00;100601.16;695643;28;710;-62
2023/09/16 00:06:48;;;;;;;5.80;3.60;;;;;;;14.58;100.00;100594.16;694559;28;1268;-62
2023/09/16 00:07:08;;;;;;;5.50;3.40;;;;;;;14.61;100.00;100595.84;695809;28;4677;-62
2023/09/16 00:07:29;;;;;;;5.40;3.37;;;;;;;14.62;100.00;100592.28;695957;28;947;-62
2023/09/16 00:07:49;;;;;;;5.45;3.70;;;;;;;14.62;100.00;100595.84;694577;28;1377;-62
2023/09/16 00:08:10;;;;;;;5.00;3.50;;;;;;;14.64;100.00;100599.28;695636;28;1299;-62
2023/09/16 00:08:34;;;;;;;5.55;3.42;;;;;;;14.62;100.00;100595.84;695660;28;1338;-62
2023/09/16 00:08:54;;;;;;;5.45;3.45;;;;;;;14.61;100.00;100599.34;695205;28;2126;-62
2023/09/16 00:09:16;;;;;;;5.10;3.40;;;;;;;14.62;100.00;100606.38;695667;28;910;-62
2023/09/16 00:09:38;;;;;;;5.25;3.38;;;;;;;14.62;100.00;100600.19;695549;28;1015;-62
2023/09/16 00:09:58;;;;;;;5.97;3.50;;;;;;;14.61;100.00;100599.34;694673;28;1367;-62
2023/09/16 00:10:19;;;;;;;5.30;3.55;;;;;;;14.61;100.00;100596.69;693816;28;4407;-62
2023/09/16 00:10:40;;;;;;;5.63;3.50;;;;;;;14.61;100.00;100599.34;691884;28;944;-62
2023/09/16 00:11:01;;;;;;;5.18;3.60;;;;;;;14.62;100.00;100602.81;694673;28;1131;-62
2023/09/16 00:11:22;;;;;;;5.18;3.53;;;;;;;14.62;100.00;100598.47;696038;28;900;-62
2023/09/16 00:11:42;;;;;;;5.85;3.65;;;;;;;14.62;100.00;100594.94;695550;28;903;-62
2023/09/16 00:12:03;;;;;;;5.22;3.60;;;;;;;14.61;100.00;100601.09;694806;28;1157;-62
2023/09/16 00:12:24;;;;;;;6.20;3.40;;;;;;;14.59;100.00;100603.78;695127;28;1510;-62
2023/09/16 00:12:45;;;;;;;6.63;3.50;;;;;;;14.59;100.00;100600.25;695669;28;841;-62
2023/09/16 00:13:05;;;;;;;5.67;3.47;;;;;;;14.57;100.00;100597.66;695058;28;997;-62
2023/09/16 00:13:26;;;;;;;5.53;3.67;;;;;;;14.58;100.00;100598.53;694361;28;4551;-62
2023/09/16 00:13:47;;;;;;;6.70;3.58;;;;;;;14.59;100.00;100601.16;695429;28;1427;-62
2023/09/16 00:14:07;;;;;;;6.40;3.40;;;;;;;14.60;100.00;100599.38;695209;28;1250;-62
2023/09/16 00:14:29;;;;;;;5.55;3.60;;;;;;;14.58;100.00;100596.78;695904;28;907;-62
2023/09/16 00:14:49;;;;;;;5.43;3.50;;;;;;;14.59;100.00;100595.00;694352;28;965;-62
2023/09/16 00:15:10;;;;;;;5.53;3.40;;;;;;;14.60;100.00;100599.38;696218;28;895;-62
2023/09/16 00:15:31;;;;;;;5.28;3.53;;;;;;;14.61;100.00;100601.97;696162;28;1520;-62
2023/09/16 00:15:51;;;;;;;5.67;3.43;;;;;;;14.60;100.00;100597.59;694616;28;1087;-62
2023/09/16 00:16:12;;;;;;;5.75;3.42;;;;;;;14.61;100.00;100601.97;694980;28;4354;-62
2023/09/16 00:16:32;;;;;;;6.63;3.73;;;;;;;14.61;100.00;100593.22;695629;28;888;-62
2023/09/16 00:16:55;;;;;;;5.30;3.53;;;;;;;14.61;100.00;100598.47;694647;28;1083;-62
2023/09/16 00:17:16;;;;;;;4.97;3.38;;;;;;;14.63;100.00;100594.94;696117;28;822;-62
2023/09/16 00:17:36;;;;;;;4.83;3.60;;;;;;;14.61;100.00;100596.69;695651;28;884;-62
2023/09/16 00:17:57;;;;;;;6.57;3.30;;;;;;;14.60;100.00;100592.34;694853;28;1063;-62
2023/09/16 00:18:18;;;;;;;6.15;3.33;;;;;;;14.61;100.00;100598.47;695850;28;951;-62
2023/09/16 00:18:39;;;;;;;4.85;3.53;;;;;;;14.60;100.00;100594.13;695496;28;1261;-62
2023/09/16 00:18:59;;;;;;;4.93;3.40;;;;;;;14.59;100.00;100593.25;691666;28;898;-62
2023/09/16 00:19:19;;;;;;;5.35;3.40;;;;;;;14.60;100.00;100588.84;689905;28;4383;-62
2023/09/16 00:19:40;;;;;;;5.43;3.63;;;;;;;14.59;100.00;100595.88;689727;28;3715;-62
2023/09/16 00:20:04;;;;;;;6.10;3.60;;;;;;;14.60;100.00;100596.75;689779;28;1119;-63
2023/09/16 00:20:26;;;;;;;5.30;3.60;;;;;;;14.59;100.00;100590.63;692754;28;1282;-62
2023/09/16 00:20:49;;;;;;;5.72;3.50;;;;;;;14.59;100.00;100590.63;694202;28;857;-62
2023/09/16 00:21:10;;;;;;;6.07;3.70;;;;;;;14.58;100.00;100594.16;697544;28;912;-63
2023/09/16 00:21:31;;;;;;;6.13;3.90;;;;;;;14.59;100.00;100590.63;696340;28;1288;-63
2023/09/16 00:21:51;;;;;;;5.75;3.50;;;;;;;14.58;100.00;100594.16;695453;28;2396;-62
2023/09/16 00:22:13;;;;;;;5.75;3.47;;;;;;;14.58;100.00;100596.78;689957;28;4914;-62
2023/09/16 00:22:36;;;;;;;5.57;3.40;;;;;;;14.59;100.00;100588.00;690944;28;860;-62
2023/09/16 00:22:57;;;;;;;4.90;3.40;;;;;;;14.58;100.00;100583.63;689125;28;1738;-62
2023/09/16 00:23:17;;;;;;;4.72;3.50;;;;;;;14.58;100.00;100588.88;689593;28;873;-62
2023/09/16 00:23:38;;;;;;;4.78;3.28;;;;;;;14.58;100.00;100596.78;692511;28;928;-63
2023/09/16 00:23:59;;;;;;;5.40;3.27;;;;;;;14.57;100.00;100587.16;693385;28;1050;-62
2023/09/16 00:24:19;;;;;;;5.22;3.33;;;;;;;14.57;100.00;100592.41;696190;28;947;-62
2023/09/16 00:24:40;;;;;;;5.30;3.70;;;;;;;14.57;100.00;100588.94;696502;28;872;-62
2023/09/16 00:25:01;;;;;;;5.70;3.53;;;;;;;14.58;100.00;100588.88;695147;28;2309;-62
2023/09/16 00:25:21;;;;;;;5.95;3.47;;;;;;;14.60;100.00;100586.22;695964;28;4380;-62
2023/09/16 00:25:42;;;;;;;5.63;3.35;;;;;;;14.59;100.00;100584.47;696394;28;1914;-63
2023/09/16 00:26:03;;;;;;;5.63;3.47;;;;;;;14.58;100.00;100582.75;695326;28;2515;-62
2023/09/16 00:26:24;;;;;;;6.70;3.60;;;;;;;14.57;100.00;100587.16;695718;28;1019;-62
2023/09/16 00:26:45;;;;;;;4.85;3.08;;;;;;;14.57;100.00;100586.28;696372;28;1477;-63
2023/09/16 00:27:06;;;;;;;4.80;3.13;;;;;;;14.57;100.00;100581.03;695005;28;1895;-63
2023/09/16 00:27:27;;;;;;;5.78;3.35;;;;;;;14.58;100.00;100591.53;696000;28;975;-63
2023/09/16 00:27:47;;;;;;;6.05;3.70;;;;;;;14.56;100.00;100585.41;695104;28;1270;-62
2023/09/16 00:28:08;;;;;;;6.03;3.83;;;;;;;14.57;100.00;100581.03;694625;28;4555;-62
2023/09/16 00:28:29;;;;;;;5.70;3.70;;;;;;;14.58;100.00;100581.00;696166;28;892;-63
2023/09/16 00:28:50;;;;;;;5.88;3.60;;;;;;;14.58;100.00;100588.88;697709;28;2339;-63
2023/09/16 00:29:10;;;;;;;5.82;3.42;;;;;;;14.60;100.00;100581.81;695973;28;1302;-62
2023/09/16 00:29:31;;;;;;;6.40;3.60;;;;;;;14.60;100.00;100581.81;693403;28;1246;-63
2023/09/16 00:29:51;;;;;;;6.25;3.58;;;;;;;14.62;100.00;100589.66;692307;28;1784;-63
2023/09/16 00:30:12;;;;;;;5.07;3.30;;;;;;;14.61;100.00;100583.56;693431;28;943;-62
2023/09/16 00:30:34;;;;;;;5.75;3.30;;;;;;;14.62;100.00;100589.66;693356;28;1298;-63
2023/09/16 00:30:57;;;;;;;6.20;3.40;;;;;;;14.62;100.00;100587.03;693303;28;1587;-62
2023/09/16 00:31:18;;;;;;;5.10;3.38;;;;;;;14.62;100.00;100590.59;694731;28;4388;-62
2023/09/16 00:31:38;;;;;;;5.70;3.40;;;;;;;14.66;100.00;100590.50;693923;28;1225;-62
2023/09/16 00:32:01;;;;;;;5.30;3.40;;;;;;;14.66;100.00;100580.84;695541;28;1451;-62
2023/09/16 00:32:22;;;;;;;4.90;3.47;;;;;;;14.66;100.00;100591.34;696330;28;1457;-62
2023/09/16 00:32:43;;;;;;;5.90;3.50;;;;;;;14.64;100.00;100588.75;694410;28;1672;-62
2023/09/16 00:33:03;;;;;;;5.78;3.15;;;;;;;14.64;100.00;100583.50;694293;28;2589;-62
2023/09/16 00:33:24;;;;;;;5.33;3.20;;;;;;;14.62;100.00;100585.31;692086;28;1081;-62
2023/09/16 00:33:44;;;;;;;5.65;3.50;;;;;;;14.61;100.00;100585.31;691685;28;829;-62
2023/09/16 00:34:05;;;;;;;5.28;3.40;;;;;;;14.61;100.00;100578.28;690124;28;1011;-67
2023/09/16 00:34:25;;;;;;;5.00;3.30;;;;;;;14.61;100.00;100585.31;689937;28;4558;-63
2023/09/16 00:34:50;;;;;;;6.90;3.80;;;;;;;14.62;100.00;100584.41;694426;28;808;-63
2023/09/16 00:35:11;;;;;;;5.38;3.47;;;;;;;14.62;100.00;100587.03;694750;28;850;-63
2023/09/16 00:35:32;;;;;;;5.68;3.33;;;;;;;14.63;100.00;100581.81;696158;28;951;-63
2023/09/16 00:35:52;;;;;;;5.50;3.50;;;;;;;14.63;100.00;100581.81;694192;28;882;-63
2023/09/16 00:36:13;;;;;;;4.85;3.35;;;;;;;14.61;100.00;100580.91;695243;28;912;-63
2023/09/16 00:36:33;;;;;;;4.90;3.30;;;;;;;14.60;100.00;100584.44;696744;28;876;-63
2023/09/16 00:36:53;;;;;;;5.33;3.50;;;;;;;14.59;100.00;100580.09;695313;28;2040;-63
2023/09/16 00:37:14;;;;;;;5.15;3.35;;;;;;;14.60;100.00;100581.81;696270;28;4672;-63
2023/09/16 00:37:34;;;;;;;5.30;3.27;;;;;;;14.62;100.00;100585.31;696043;28;1377;-63
2023/09/16 00:37:55;;;;;;;6.07;3.53;;;;;;;14.64;100.00;100578.25;694947;28;2701;-63
2023/09/16 00:38:15;;;;;;;6.07;3.93;;;;;;;14.63;100.00;100576.53;696206;28;959;-63
2023/09/16 00:38:37;;;;;;;5.07;3.72;;;;;;;14.62;100.00;100585.31;696712;28;841;-63
2023/09/16 00:38:58;;;;;;;4.97;3.40;;;;;;;14.60;100.00;100581.81;695262;28;1893;-63
2023/09/16 00:39:18;;;;;;;5.40;3.55;;;;;;;14.60;100.00;100576.56;696321;28;1241;-63
2023/09/16 00:39:39;;;;;;;5.30;3.60;;;;;;;14.60;100.00;100573.06;691274;28;1268;-63
2023/09/16 00:39:59;;;;;;;6.03;3.70;;;;;;;14.58;100.00;100574.84;688595;28;1220;-63
2023/09/16 00:40:19;;;;;;;4.78;3.33;;;;;;;14.56;100.00;100571.41;691859;28;4530;-63
2023/09/16 00:40:40;;;;;;;4.90;3.25;;;;;;;14.58;100.00;100572.22;690488;28;837;-63
2023/09/16 00:41:02;;;;;;;4.57;3.22;;;;;;;14.59;100.00;100572.22;688452;28;1482;-63
2023/09/16 00:41:22;;;;;;;5.22;3.30;;;;;;;14.60;100.00;100573.06;690539;28;797;-63
2023/09/16 00:41:43;;;;;;;5.57;3.50;;;;;;;14.61;100.00;100573.03;693722;28;1469;-63
2023/09/16 00:42:04;;;;;;;5.47;3.60;;;;;;;14.62;100.00;100569.53;694833;28;1187;-63
2023/09/16 00:42:25;;;;;;;4.80;3.43;;;;;;;14.61;100.00;100564.28;694378;28;6163;-63
2023/09/16 00:42:45;;;;;;;5.57;3.50;;;;;;;14.59;100.00;100572.22;694894;28;813;-62
2023/09/16 00:43:06;;;;;;;6.40;3.77;;;;;;;14.59;100.00;100566.94;691447;28;2253;-63
2023/09/16 00:43:26;;;;;;;5.68;3.55;;;;;;;14.57;100.00;100571.38;692460;28;4630;-63
2023/09/16 00:43:47;;;;;;;5.43;3.50;;;;;;;14.58;100.00;100573.09;695291;28;852;-62
2023/09/16 00:44:07;;;;;;;5.80;3.60;;;;;;;14.56;100.00;100569.63;694807;28;1842;-63
2023/09/16 00:44:28;;;;;;;6.07;3.60;;;;;;;14.57;100.00;100570.50;695509;28;775;-63
2023/09/16 00:44:48;;;;;;;6.38;3.50;;;;;;;14.56;100.00;100572.25;695848;28;1119;-63
2023/09/16 00:45:10;;;;;;;6.97;3.67;;;;;;;14.58;100.00;100569.59;696013;28;1869;-63
2023/09/16 00:45:33;;;;;;;6.28;3.67;;;;;;;14.57;100.00;100563.47;695855;28;1007;-62
2023/09/16 00:45:53;;;;;;;6.50;3.50;;;;;;;14.58;100.00;100564.31;694786;28;2604;-63
2023/09/16 00:46:14;;;;;;;5.05;3.20;;;;;;;14.59;100.00;100573.97;692942;28;4285;-63
2023/09/16 00:46:34;;;;;;;5.83;3.50;;;;;;;14.58;100.00;100569.59;688920;28;1270;-63
2023/09/16 00:46:56;;;;;;;5.05;3.50;;;;;;;14.57;100.00;100567.88;688808;28;1000;-63
2023/09/16 00:47:16;;;;;;;5.50;3.80;;;;;;;14.57;100.00;100571.38;690815;28;880;-63
2023/09/16 00:47:37;;;;;;;5.40;3.90;;;;;;;14.57;100.00;100574.00;691481;28;861;-62
2023/09/16 00:47:57;;;;;;;4.70;3.50;;;;;;;14.58;100.00;100561.69;689537;28;2307;-62
2023/09/16 00:48:18;;;;;;;4.90;3.07;;;;;;;14.57;100.00;100567.88;693654;28;1330;-63
2023/09/16 00:48:39;;;;;;;5.05;3.35;;;;;;;14.57;100.00;100568.72;696145;28;861;-63
2023/09/16 00:49:00;;;;;;;5.57;3.60;;;;;;;14.58;100.00;100567.84;695761;28;1598;-62
2023/09/16 00:49:21;;;;;;;6.63;3.73;;;;;;;14.59;100.00;100569.59;695439;28;4432;-63
2023/09/16 00:49:42;;;;;;;5.47;3.47;;;;;;;14.58;100.00;100570.47;696283;28;1282;-63
2023/09/16 00:50:07;;;;;;;5.78;3.70;;;;;;;14.55;100.00;100573.19;695124;28;1103;-63
2023/09/16 00:50:27;;;;;;;6.32;3.50;;;;;;;14.53;100.00;100569.69;696070;28;952;-63
2023/09/16 00:50:48;;;;;;;5.77;3.43;;;;;;;14.54;100.00;100571.44;693356;28;817;-63
2023/09/16 00:51:09;;;;;;;5.28;3.58;;;;;;;14.55;100.00;100564.41;691848;28;1666;-63
2023/09/16 00:51:30;;;;;;;5.60;3.65;;;;;;;14.53;100.00;100569.69;692224;28;1629;-63
2023/09/16 00:51:50;;;;;;;5.28;3.50;;;;;;;14.52;100.00;100573.22;693038;28;890;-63
2023/09/16 00:52:11;;;;;;;4.87;3.33;;;;;;;14.52;100.00;100567.97;691114;28;4571;-63
2023/09/16 00:52:33;;;;;;;5.95;3.70;;;;;;;14.54;100.00;100571.44;693086;28;967;-63
2023/09/16 00:52:56;;;;;;;5.53;3.65;;;;;;;14.54;100.00;100570.56;695122;28;1574;-63
2023/09/16 00:53:17;;;;;;;6.97;3.70;;;;;;;14.53;100.00;100568.84;696351;28;980;-63
2023/09/16 00:53:38;;;;;;;7.03;3.58;;;;;;;14.53;100.00;100569.69;695722;28;2028;-63
2023/09/16 00:54:00;;;;;;;5.40;3.53;;;;;;;14.53;100.00;100576.75;694946;28;1537;-62
2023/09/16 00:54:20;;;;;;;5.22;3.53;;;;;;;14.49;100.00;100568.03;695216;28;928;-62
2023/09/16 00:54:41;;;;;;;5.30;3.50;;;;;;;14.47;100.00;100575.13;693429;28;1305;-63
2023/09/16 00:55:03;;;;;;;4.83;3.30;;;;;;;14.48;100.00;100572.44;691245;28;2018;-63
2023/09/16 00:55:26;;;;;;;5.40;3.45;;;;;;;14.48;100.00;100575.06;692674;28;4375;-62
2023/09/16 00:55:49;;;;;;;5.72;3.60;;;;;;;14.47;100.00;100572.50;692379;28;1035;-63
2023/09/16 00:56:09;;;;;;;5.07;3.55;;;;;;;14.46;100.00;100570.75;690608;28;1890;-62
2023/09/16 00:56:30;;;;;;;5.60;3.40;;;;;;;14.43;100.00;100568.19;691498;28;1269;-63
2023/09/16 00:56:52;;;;;;;5.43;3.60;;;;;;;14.42;100.00;100566.47;691629;28;1415;-63
2023/09/16 00:57:14;;;;;;;6.85;3.90;;;;;;;14.42;100.00;100569.09;690790;28;1678;-63
2023/09/16 00:57:39;;;;;;;6.38;3.55;;;;;;;14.42;100.00;100574.34;690874;28;1325;-63
2023/09/16 00:58:02;;;;;;;5.28;3.33;;;;;;;14.41;100.00;100567.34;688304;28;1795;-63
2023/09/16 00:58:22;;;;;;;5.35;3.72;;;;;;;14.42;100.00;100571.72;689451;28;4563;-63
2023/09/16 00:58:44;;;;;;;6.63;4.00;;;;;;;14.40;100.00;100569.13;690333;28;1356;-63
2023/09/16 00:59:05;;;;;;;6.32;3.72;;;;;;;14.40;100.00;100570.88;691313;28;1922;-62
2023/09/16 00:59:26;;;;;;;5.47;3.77;;;;;;;14.39;100.00;100571.78;690625;28;1203;-62
2023/09/16 00:59:47;;;;;;;5.40;3.60;;;;;;;14.39;100.00;100572.66;688187;28;1385;-63
2023/09/16 01:00:08;;;;;;;6.60;3.67;;;;;;;14.38;100.00;100570.06;684509;28;1920;-62
2023/09/16 01:00:29;;;;;;;6.40;3.42;;;;;;;14.35;100.00;100570.13;686409;28;1228;-63
2023/09/16 01:00:50;;;;;;;5.53;3.42;;;;;;;14.33;100.00;100569.28;688016;28;927;-63
2023/09/16 01:01:16;;;;;;;4.85;3.25;;;;;;;14.34;100.00;100571.00;687076;28;4463;-63
2023/09/16 01:01:37;;;;;;;4.97;3.45;;;;;;;14.33;100.00;100569.28;688938;28;1315;-63
2023/09/16 01:01:59;;;;;;;5.80;3.70;;;;;;;14.34;100.00;100569.25;690635;28;2244;-63
2023/09/16 01:02:20;;;;;;;5.85;3.47;;;;;;;14.36;100.00;100571.84;689135;28;1266;-64
2023/09/16 01:02:41;;;;;;;5.40;3.45;;;;;;;14.32;100.00;100568.41;689247;28;1338;-63
2023/09/16 01:03:04;;;;;;;5.13;3.73;;;;;;;14.31;100.00;100570.16;685563;28;1734;-63
2023/09/16 01:03:26;;;;;;;6.10;3.50;;;;;;;14.31;100.00;100564.91;686152;28;1399;-63
2023/09/16 01:03:46;;;;;;;6.40;3.60;;;;;;;14.36;100.00;100571.84;685895;28;1300;-63
2023/09/16 01:04:08;;;;;;;6.50;3.67;;;;;;;14.33;100.00;100566.66;687388;28;4407;-63
2023/09/16 01:04:30;;;;;;;5.28;3.60;;;;;;;14.31;100.00;100569.31;691350;28;1019;-63
2023/09/16 01:04:51;;;;;;;5.80;3.85;;;;;;;14.29;100.00;100564.09;694634;28;1036;-63
2023/09/16 01:05:14;;;;;;;6.00;4.10;;;;;;;14.28;100.00;100569.38;694920;28;1113;-63
2023/09/16 01:05:35;;;;;;;4.78;3.42;;;;;;;14.29;100.00;100565.88;696067;28;955;-63
2023/09/16 01:05:59;;;;;;;6.07;3.40;;;;;;;14.27;100.00;100565.91;694628;28;2209;-63
2023/09/16 01:06:19;;;;;;;5.63;3.38;;;;;;;14.30;100.00;100576.34;696205;28;1034;-63
2023/09/16 01:06:43;;;;;;;5.40;3.70;;;;;;;14.29;100.00;100565.88;694905;28;1850;-63
2023/09/16 01:07:03;;;;;;;5.85;3.70;;;;;;;14.29;100.00;100565.88;694315;28;2144;-63
2023/09/16 01:07:24;;;;;;;6.17;3.47;;;;;;;14.27;100.00;100565.91;695803;28;4364;-63
2023/09/16 01:07:49;;;;;;;5.47;3.42;;;;;;;14.28;100.00;100566.75;696181;28;793;-63
2023/09/16 01:08:11;;;;;;;4.97;3.42;;;;;;;14.26;100.00;100566.78;692481;28;2445;-63
2023/09/16 01:08:34;;;;;;;5.22;3.50;;;;;;;14.25;100.00;100566.84;690265;28;1077;-63
2023/09/16 01:08:54;;;;;;;5.30;3.20;;;;;;;14.23;100.00;100572.13;685034;28;1613;-63
2023/09/16 01:09:16;;;;;;;4.63;3.00;;;;;;;14.20;100.00;100566.91;688238;28;956;-63
2023/09/16 01:09:37;;;;;;;5.45;3.33;;;;;;;14.22;100.00;100567.75;686710;28;1326;-63
2023/09/16 01:09:59;;;;;;;5.75;3.30;;;;;;;14.20;100.00;100566.91;684301;28;1239;-63
2023/09/16 01:10:20;;;;;;;5.00;3.28;;;;;;;14.20;100.00;100569.53;685495;28;4488;-63
2023/09/16 01:10:41;;;;;;;5.45;3.20;;;;;;;14.20;100.00;100571.31;687147;28;1718;-63
2023/09/16 01:11:05;;;;;;;6.77;3.40;;;;;;;14.18;100.00;100571.34;687898;28;1197;-63
2023/09/16 01:11:25;;;;;;;5.82;3.38;;;;;;;14.18;100.00;100567.84;687425;28;904;-63
2023/09/16 01:11:46;;;;;;;6.28;3.55;;;;;;;14.17;100.00;100568.75;687642;28;1594;-62
2023/09/16 01:12:10;;;;;;;7.65;3.35;;;;;;;14.16;100.00;100570.50;688842;28;1891;-62
2023/09/16 01:12:30;;;;;;;5.18;3.53;;;;;;;14.16;100.00;100567.03;690952;28;1531;-63
2023/09/16 01:12:53;;;;;;;4.93;3.30;;;;;;;14.17;100.00;100561.72;693437;28;896;-63
2023/09/16 01:13:14;;;;;;;6.10;3.50;;;;;;;14.18;100.00;100579.25;696662;28;4543;-63
2023/09/16 01:13:37;;;;;;;5.85;3.50;;;;;;;14.19;100.00;100570.47;695738;28;1376;-63
2023/09/16 01:13:58;;;;;;;5.20;3.47;;;;;;;14.19;100.00;100566.94;694960;28;1747;-63
2023/09/16 01:14:18;;;;;;;5.70;3.40;;;;;;;14.18;100.00;100571.34;696523;28;902;-63
2023/09/16 01:14:39;;;;;;;5.60;3.30;;;;;;;14.18;100.00;100567.84;696008;28;939;-63
2023/09/16 01:14:59;;;;;;;5.33;3.30;;;;;;;14.18;100.00;100573.97;691909;28;1688;-63
2023/09/16 01:15:22;;;;;;;5.47;3.40;;;;;;;14.17;100.00;100571.38;693572;28;1447;-62
2023/09/16 01:15:59;;;;;;;5.43;3.60;;;;;;;14.15;100.00;100574.06;693510;28;1003;-63
2023/09/16 01:16:34;;;;;;;5.95;3.35;;;;;;;14.13;100.00;100566.16;691826;28;4369;-62
2023/09/16 01:17:02;;;;;;;5.30;3.30;;;;;;;14.14;100.00;100567.06;690778;28;1861;-63
2023/09/16 01:17:35;;;;;;;5.25;3.20;;;;;;;14.13;100.00;100567.94;693363;28;1218;-62
2023/09/16 01:18:05;;;;;;;5.20;3.65;;;;;;;14.13;100.00;100576.69;691038;28;2631;-63
2023/09/16 01:18:34;;;;;;;5.20;3.30;;;;;;;14.15;100.00;100574.06;692840;28;883;-63
2023/09/16 01:19:01;;;;;;;5.55;3.50;;;;;;;14.14;100.00;100572.31;694567;28;1540;-63
2023/09/16 01:19:45;;;;;;;5.32;3.08;;;;;;;14.15;100.00;100571.41;695217;28;4345;-62
2023/09/16 01:20:10;;;;;;;5.22;3.40;;;;;;;14.15;100.00;100574.06;694188;28;1863;-63
2023/09/16 01:20:32;;;;;;;5.13;3.40;;;;;;;14.16;100.00;100575.75;693485;28;1378;-63
2023/09/16 01:20:56;;;;;;;6.43;3.40;;;;;;;14.19;100.00;100574.84;692743;28;906;-63
2023/09/16 01:21:19;;;;;;;5.13;3.35;;;;;;;14.21;100.00;100570.44;692660;28;821;-63
2023/09/16 01:21:41;;;;;;;5.35;3.47;;;;;;;14.21;100.00;100568.66;693372;28;1372;-63
2023/09/16 01:22:02;;;;;;;7.13;3.65;;;;;;;14.19;100.00;100575.72;694492;28;2731;-64
2023/09/16 01:22:23;;;;;;;6.93;3.70;;;;;;;14.16;100.00;100570.50;695755;28;4533;-63
2023/09/16 01:22:45;;;;;;;6.10;3.60;;;;;;;14.17;100.00;100571.38;695626;28;841;-63
2023/09/16 01:23:07;;;;;;;4.90;3.25;;;;;;;14.19;100.00;100569.56;694549;28;1015;-63
2023/09/16 01:23:28;;;;;;;5.15;3.50;;;;;;;14.19;100.00;100577.47;698792;28;912;-63
2023/09/16 01:23:49;;;;;;;4.90;3.20;;;;;;;14.19;100.00;100580.97;698599;28;1244;-63
2023/09/16 01:24:23;;;;;;;5.10;3.33;;;;;;;14.18;100.00;100576.59;696132;28;1064;-63
2023/09/16 01:24:51;;;;;;;5.68;3.35;;;;;;;14.19;100.00;100572.19;695865;28;988;-62
2023/09/16 01:25:14;;;;;;;6.20;3.47;;;;;;;14.19;100.00;100570.47;694815;28;4403;-63
2023/09/16 01:25:35;;;;;;;5.10;3.30;;;;;;;14.21;100.00;100573.06;694962;28;1062;-63
2023/09/16 01:25:56;;;;;;;5.10;3.13;;;;;;;14.20;100.00;100576.56;693075;28;1981;-63
2023/09/16 01:26:18;;;;;;;5.22;3.42;;;;;;;14.19;100.00;100570.47;690067;28;848;-63
2023/09/16 01:26:39;;;;;;;5.78;3.53;;;;;;;14.19;100.00;100575.72;691204;28;1295;-63
2023/09/16 01:26:59;;;;;;;5.57;3.40;;;;;;;14.20;100.00;100571.31;692152;28;2425;-63
2023/09/16 01:27:21;;;;;;;5.47;3.45;;;;;;;14.21;100.00;100573.91;689937;28;1319;-63
2023/09/16 01:27:42;;;;;;;5.10;3.20;;;;;;;14.16;100.00;100573.13;688427;28;1308;-63
2023/09/16 01:28:03;;;;;;;5.75;3.30;;;;;;;14.15;100.00;100566.16;687362;28;1394;-62
2023/09/16 01:28:25;;;;;;;5.30;3.30;;;;;;;14.18;100.00;100566.09;684727;28;4452;-63
2023/09/16 01:28:45;;;;;;;4.90;3.45;;;;;;;14.19;100.00;100565.19;687781;28;2150;-63
2023/09/16 01:29:05;;;;;;;5.53;3.50;;;;;;;14.22;100.00;100566.88;684319;28;1863;-63
2023/09/16 01:29:27;;;;;;;5.47;3.35;;;;;;;14.21;100.00;100563.38;687146;28;916;-63
2023/09/16 01:29:48;;;;;;;5.53;3.40;;;;;;;14.20;100.00;100563.44;693005;28;939;-63
2023/09/16 01:30:10;;;;;;;5.53;3.55;;;;;;;14.21;100.00;100566.03;689348;28;1472;-63
2023/09/16 01:30:35;;;;;;;5.28;3.38;;;;;;;14.21;100.00;100558.13;686499;28;1432;-63
2023/09/16 01:30:57;;;;;;;5.85;3.50;;;;;;;14.22;100.00;100564.25;684765;28;3070;-63
2023/09/16 01:31:18;;;;;;;5.97;3.40;;;;;;;14.22;100.00;100565.13;685842;28;4318;-63
2023/09/16 01:31:38;;;;;;;5.50;3.50;;;;;;;14.23;100.00;100560.72;688829;28;1110;-63
2023/09/16 01:32:04;;;;;;;5.00;3.40;;;;;;;14.23;100.00;100558.97;688355;28;1824;-63
2023/09/16 01:32:34;;;;;;;4.75;3.30;;;;;;;14.24;100.00;100557.22;692509;28;914;-64
2023/09/16 01:33:04;;;;;;;5.75;3.30;;;;;;;14.25;100.00;100567.69;692189;28;1782;-63
2023/09/16 01:33:46;;;;;;;5.55;3.35;;;;;;;14.29;100.00;100557.97;695974;28;924;-63
2023/09/16 01:34:21;;;;;;;5.28;3.30;;;;;;;14.29;100.00;100561.47;693312;28;999;-63
2023/09/16 01:34:49;;;;;;;5.82;3.80;;;;;;;14.29;100.00;100563.25;690940;28;5019;-63
2023/09/16 01:35:14;;;;;;;5.93;3.70;;;;;;;14.27;100.00;100558.03;690289;28;919;-63
2023/09/16 01:35:38;;;;;;;5.35;3.38;;;;;;;14.26;100.00;100558.91;690971;28;884;-63
2023/09/16 01:36:13;;;;;;;5.03;3.55;;;;;;;14.26;100.00;100561.53;689091;28;1397;-63
2023/09/16 01:36:35;;;;;;;5.88;3.53;;;;;;;14.26;100.00;100564.16;695843;28;872;-63
2023/09/16 01:36:58;;;;;;;5.10;3.13;;;;;;;14.24;100.00;100563.31;695160;28;1038;-63
2023/09/16 01:37:22;;;;;;;6.03;3.17;;;;;;;14.23;100.00;100560.72;692698;28;4530;-63
2023/09/16 01:37:45;;;;;;;6.30;3.30;;;;;;;14.22;100.00;100559.88;693162;28;1190;-64
2023/09/16 01:38:07;;;;;;;5.67;3.43;;;;;;;14.22;100.00;100559.88;692127;28;1893;-63
2023/09/16 01:38:29;;;;;;;5.53;3.50;;;;;;;14.23;100.00;100560.72;690643;28;872;-63
2023/09/16 01:38:56;;;;;;;5.82;3.42;;;;;;;14.23;100.00;100563.34;691636;28;1218;-63
2023/09/16 01:39:21;;;;;;;5.63;3.40;;;;;;;14.22;100.00;100561.63;690367;28;1572;-63
2023/09/16 01:39:46;;;;;;;6.10;3.40;;;;;;;14.23;100.00;100561.59;688234;28;996;-63
2023/09/16 01:40:11;;;;;;;5.20;3.47;;;;;;;14.24;100.00;100557.22;685059;28;2127;-63
2023/09/16 01:40:33;;;;;;;5.90;3.47;;;;;;;14.24;100.00;100554.56;689078;28;5035;-63
2023/09/16 01:40:56;;;;;;;5.25;3.30;;;;;;;14.23;100.00;100556.34;689409;28;1270;-63
2023/09/16 01:41:19;;;;;;;5.13;3.50;;;;;;;14.23;100.00;100552.84;690128;28;1729;-63
2023/09/16 01:41:41;;;;;;;4.97;3.33;;;;;;;14.22;100.00;100554.63;688039;28;892;-63
2023/09/16 01:42:02;;;;;;;5.32;3.40;;;;;;;14.21;100.00;100563.38;685991;28;1646;-63
2023/09/16 01:42:24;;;;;;;5.28;3.30;;;;;;;14.20;100.00;100560.81;687455;28;5594;-63
2023/09/16 01:42:46;;;;;;;6.20;3.53;;;;;;;14.21;100.00;100562.53;685068;28;1204;-63
2023/09/16 01:43:07;;;;;;;5.03;3.60;;;;;;;14.22;100.00;100559.88;685668;28;1359;-63
2023/09/16 01:43:28;;;;;;;5.75;3.30;;;;;;;14.23;100.00;100556.34;686437;28;5026;-63
2023/09/16 01:43:49;;;;;;;5.22;3.10;;;;;;;14.23;100.00;100561.59;687645;28;801;-63
2023/09/16 01:44:10;;;;;;;6.07;3.47;;;;;;;14.24;100.00;100567.72;689364;28;1288;-63